Time,TemperatureF,DewpointF,PressureIn,WindDirection,WindDirectionDegrees,WindSpeedMPH,WindSpeedGustMPH,Humidity,HourlyPrecipIn,Conditions,Clouds,dailyrainin,SoftwareType,DateUTC
2013-06-05 00:00:00,63.3,61.6,29.94,SSW,204,0.0,1.0,94,0.00,CLR,,0.00,WeatherDisplay:10.37,2013-06-05 04:00:00,
2013-06-05 01:00:00,61.8,60.1,29.93,SSW,204,0.0,1.0,94,0.00,CLR,,0.00,WeatherDisplay:10.37,2013-06-05 05:00:00,
2013-06-05 02:00:00,60.8,59.7,29.93,SSW,204,0.0,1.0,96,0.00,CLR,,0.00,WeatherDisplay:10.37,2013-06-05 06:00:00,
2013-06-05 03:00:00,61.2,60.3,29.93,SSW,204,0.0,2.0,97,0.00,CLR,,0.00,WeatherDisplay:10.37,2013-06-05 07:00:00,
2013-06-05 04:00:00,61.4,60.8,29.94,SSW,204,0.0,2.0,98,0.00,CLR,,0.00,WeatherDisplay:10.37,2013-06-05 08:00:00,
2013-06-05 05:00:00,61.4,60.8,29.95,SSW,204,0.0,1.0,98,0.00,CLR,,0.00,WeatherDisplay:10.37,2013-06-05 09:00:00,
2013-06-05 06:00:00,61.2,60.6,29.95,SSW,204,0.0,0.0,98,0.00,CLR,,0.00,WeatherDisplay:10.37,2013-06-05 10:00:00,
2013-06-05 07:00:00,60.5,59.9,29.96,SSW,204,0.0,1.0,98,0.00,CLR,,0.00,WeatherDisplay:10.37,2013-06-05 11:00:00,
2013-06-05 08:00:00,63.9,63.6,29.97,South,183,0.0,3.0,99,0.00,CLR,,0.00,WeatherDisplay:10.37,2013-06-05 12:00:00,
2013-06-05 09:00:00,68.4,67.5,29.97,South,171,0.0,2.0,97,0.00,CLR,,0.00,WeatherDisplay:10.37,2013-06-05 13:00:00,
2013-06-05 10:00:00,74.3,67.0,29.96,SSW,209,2.0,6.0,78,0.00,CLR,,0.00,WeatherDisplay:10.37,2013-06-05 14:00:00,
2013-06-05 11:00:00,79.0,69.2,29.93,ESE,111,0.0,8.0,72,0.00,CLR,,0.00,WeatherDisplay:10.37,2013-06-05 15:00:00,
2013-06-05 12:00:00,79.6,67.7,29.94,SSW,199,1.0,8.0,67,0.00,CLR,,0.00,WeatherDisplay:10.37,2013-06-05 16:00:00,
2013-06-05 13:00:00,80.8,67.9,29.92,South,186,6.0,12.0,65,0.00,CLR,,0.00,WeatherDisplay:10.37,2013-06-05 17:00:00,
2013-06-05 14:00:00,81.2,69.2,29.89,SE,142,2.0,10.0,67,0.00,CLR,,0.00,WeatherDisplay:10.37,2013-06-05 18:00:00,
2013-06-05 15:00:00,82.2,69.2,29.87,SSW,197,2.0,9.0,65,0.00,CLR,,0.00,WeatherDisplay:10.37,2013-06-05 19:00:00,
2013-06-05 16:00:00,82.2,68.8,29.84,SW,219,0.0,9.0,64,0.00,CLR,,0.00,WeatherDisplay:10.37,2013-06-05 20:00:00,
2013-06-05 17:00:00,79.6,70.5,29.84,SE,129,0.0,12.0,74,0.00,CLR,,0.00,WeatherDisplay:10.37,2013-06-05 21:00:00,
2013-06-05 18:00:00,77.8,67.2,29.83,South,169,3.0,7.0,70,0.00,CLR,,0.00,WeatherDisplay:10.37,2013-06-05 22:00:00,
2013-06-05 19:00:00,67.8,65.7,29.88,NE,54,0.0,9.0,93,0.00, +RA,,0.00,WeatherDisplay:10.37,2013-06-05 23:00:00,
2013-06-05 20:00:00,66.1,64.3,29.89,SE,132,0.0,3.0,94,0.00,CLR,,0.00,WeatherDisplay:10.37,2013-06-06 00:00:00,
2013-06-05 21:00:00,65.1,63.9,29.89,SE,132,0.0,1.0,96,0.00,CLR,,0.00,WeatherDisplay:10.37,2013-06-06 01:00:00,
2013-06-05 22:00:00,64.7,63.8,29.90,SE,132,0.0,1.0,97,0.00,CLR,,0.00,WeatherDisplay:10.37,2013-06-06 02:00:00,
2013-06-05 23:00:00,64.5,63.6,29.88,SE,132,0.0,1.0,97,0.00,-RA,,0.00,WeatherDisplay:10.37,2013-06-06 03:00:00,